createdAt,value
2023-10-20T00:00:04.696Z,98.77
2023-10-20T00:01:04.779Z,98.52
2023-10-20T00:02:04.706Z,98.86
2023-10-20T00:03:04.709Z,98.56
2023-10-20T00:04:04.760Z,98.77
2023-10-20T00:05:04.667Z,98.21
2023-10-20T00:06:04.645Z,98.01
2023-10-20T00:07:04.651Z,98.72
2023-10-20T00:08:04.806Z,98.52
2023-10-20T00:09:04.648Z,98.52
2023-10-20T00:10:04.634Z,98.52
2023-10-20T00:11:04.657Z,98.32
2023-10-20T00:12:04.609Z,98.52
2023-10-20T00:13:04.622Z,98.32
2023-10-20T00:14:04.649Z,98.52
2023-10-20T00:15:04.580Z,98.52
2023-10-20T00:16:04.606Z,98.52
2023-10-20T00:17:04.613Z,97.80
2023-10-20T00:18:04.609Z,97.56
2023-10-20T00:19:04.567Z,97.66
2023-10-20T00:20:04.558Z,97.45
2023-10-20T00:21:04.566Z,97.56
2023-10-20T00:22:04.540Z,97.50
2023-10-20T00:23:04.564Z,97.45
2023-10-20T00:24:04.524Z,97.50
2023-10-20T00:25:04.506Z,97.30
2023-10-20T00:26:04.556Z,97.45
2023-10-20T00:27:04.509Z,97.80
2023-10-20T00:28:04.552Z,97.91
2023-10-20T00:29:04.541Z,97.60
2023-10-20T00:30:04.479Z,98.41
2023-10-20T00:31:04.484Z,98.41
2023-10-20T00:32:04.473Z,98.52
2023-10-20T00:33:04.544Z,98.52
2023-10-20T00:34:04.474Z,98.32
2023-10-20T00:35:04.494Z,98.47
2023-10-20T00:36:04.451Z,98.41
2023-10-20T00:37:04.430Z,98.52
2023-10-20T00:38:04.456Z,98.37
2023-10-20T00:39:04.421Z,97.45
2023-10-20T00:40:04.429Z,97.15
2023-10-20T00:41:04.543Z,97.56
2023-10-20T00:42:04.406Z,97.45
2023-10-20T00:43:04.401Z,97.45
2023-10-20T00:44:04.477Z,97.05
2023-10-20T00:45:04.380Z,96.75
2023-10-20T00:46:04.517Z,96.95
2023-10-20T00:47:04.391Z,96.70
2023-10-20T00:48:04.389Z,97.15
2023-10-20T00:49:04.437Z,96.84
2023-10-20T00:50:04.361Z,97.05
2023-10-20T00:51:04.356Z,97.11
2023-10-20T00:52:04.336Z,96.60
2023-10-20T00:53:04.355Z,96.39
2023-10-20T00:54:04.320Z,96.50
2023-10-20T00:55:04.312Z,96.60
2023-10-20T00:56:04.352Z,96.60
2023-10-20T00:57:04.319Z,96.50
2023-10-20T00:58:04.296Z,96.60
2023-10-20T00:59:04.350Z,96.60
2023-10-20T01:00:04.278Z,96.09
2023-10-20T01:01:04.299Z,97.00
2023-10-20T01:02:04.305Z,96.70
2023-10-20T01:03:04.366Z,96.19
2023-10-20T01:04:04.438Z,95.89
2023-10-20T01:05:04.256Z,96.70
2023-10-20T01:06:04.242Z,96.90
2023-10-20T01:07:04.232Z,95.68
2023-10-20T01:08:04.230Z,96.90
2023-10-20T01:09:04.258Z,96.80
2023-10-20T01:10:04.213Z,97.00
2023-10-20T01:11:04.216Z,97.00
2023-10-20T01:12:04.206Z,96.80
2023-10-20T01:13:04.218Z,96.70
2023-10-20T01:14:04.212Z,95.99
2023-10-20T01:15:04.181Z,95.99
2023-10-20T01:16:04.211Z,95.99
2023-10-20T01:17:04.193Z,96.09
2023-10-20T01:18:04.209Z,95.99
2023-10-20T01:19:04.167Z,96.84
2023-10-20T01:20:04.227Z,96.39
2023-10-20T01:21:04.128Z,96.30
2023-10-20T01:22:04.126Z,96.50
2023-10-20T01:23:04.126Z,96.70
2023-10-20T01:24:04.136Z,96.09
2023-10-20T01:25:04.119Z,96.50
2023-10-20T01:26:04.127Z,96.50
2023-10-20T01:27:04.086Z,96.80
2023-10-20T01:28:04.080Z,97.00
2023-10-20T01:29:04.117Z,96.90
2023-10-20T01:30:04.075Z,95.89
2023-10-20T01:31:04.054Z,95.89
2023-10-20T01:32:04.062Z,96.39
2023-10-20T01:33:04.139Z,96.30
2023-10-20T01:34:04.072Z,96.39
2023-10-20T01:35:04.100Z,95.68
2023-10-20T01:36:04.040Z,95.89
2023-10-20T01:37:04.005Z,96.19
2023-10-20T01:38:05.122Z,96.30
2023-10-20T01:39:03.992Z,95.89
2023-10-20T01:40:04.002Z,95.99
2023-10-20T01:41:04.005Z,96.19
2023-10-20T01:42:03.977Z,96.90
2023-10-20T01:43:03.966Z,96.60
2023-10-20T01:44:03.963Z,96.60
2023-10-20T01:45:03.973Z,96.60
2023-10-20T01:46:03.943Z,96.19
2023-10-20T01:47:04.016Z,96.90
2023-10-20T01:48:03.977Z,96.30
2023-10-20T01:49:03.923Z,96.39
2023-10-20T01:50:03.961Z,96.39
2023-10-20T01:51:03.922Z,96.39
2023-10-20T01:52:03.897Z,96.54
2023-10-20T01:53:03.994Z,97.20
2023-10-20T01:54:03.876Z,96.54
2023-10-20T01:55:03.967Z,96.70
2023-10-20T01:56:03.910Z,96.80
2023-10-20T01:57:03.851Z,97.15
2023-10-20T01:58:03.856Z,96.75
2023-10-20T01:59:03.876Z,96.80
2023-10-20T02:00:03.840Z,97.05
2023-10-20T02:01:03.873Z,97.00
2023-10-20T02:02:03.909Z,96.50
2023-10-20T02:03:03.975Z,97.11
2023-10-20T02:04:03.848Z,96.44
2023-10-20T02:05:03.816Z,96.50
2023-10-20T02:06:03.808Z,96.30
2023-10-20T02:07:03.780Z,95.89
2023-10-20T02:08:03.839Z,96.70
2023-10-20T02:09:03.779Z,96.70
2023-10-20T02:10:03.782Z,97.00
2023-10-20T02:11:03.781Z,96.70
2023-10-20T02:12:03.751Z,96.44
2023-10-20T02:13:03.743Z,96.70
2023-10-20T02:14:03.764Z,96.90
2023-10-20T02:15:03.746Z,96.90
2023-10-20T02:16:03.734Z,97.00
2023-10-20T02:17:03.874Z,96.80
2023-10-20T02:18:03.785Z,96.80
2023-10-20T02:19:03.707Z,95.89
2023-10-20T02:20:03.728Z,95.58
2023-10-20T02:21:03.703Z,95.89
2023-10-20T02:22:03.689Z,96.50
2023-10-20T02:23:03.723Z,96.19
2023-10-20T02:24:03.667Z,95.99
2023-10-20T02:25:03.674Z,96.19
2023-10-20T02:26:03.676Z,96.50
2023-10-20T02:27:03.695Z,96.80
2023-10-20T02:28:03.634Z,96.90
2023-10-20T02:29:03.666Z,95.99
2023-10-20T02:30:03.619Z,96.09
2023-10-20T02:31:03.650Z,95.28
2023-10-20T02:32:03.826Z,95.83
2023-10-20T02:33:03.678Z,95.68
2023-10-20T02:34:03.592Z,95.89
2023-10-20T02:35:03.637Z,97.00
2023-10-20T02:36:03.580Z,96.80
2023-10-20T02:37:03.581Z,96.75
2023-10-20T02:38:03.580Z,96.70
2023-10-20T02:39:03.560Z,96.80
2023-10-20T02:40:03.565Z,96.80
2023-10-20T02:41:03.570Z,96.80
2023-10-20T02:42:03.552Z,96.39
2023-10-20T02:43:03.542Z,96.80
2023-10-20T02:44:03.536Z,96.39
2023-10-20T02:45:03.511Z,96.60
2023-10-20T02:46:03.513Z,96.80
2023-10-20T02:47:03.534Z,96.54
2023-10-20T02:48:03.510Z,97.00
2023-10-20T02:49:03.489Z,96.50
2023-10-20T02:50:03.509Z,96.34
2023-10-20T02:51:03.481Z,96.19
2023-10-20T02:52:03.463Z,96.90
2023-10-20T02:53:03.495Z,96.70
2023-10-20T02:54:03.453Z,96.54
2023-10-20T02:55:03.476Z,96.50
2023-10-20T02:56:03.450Z,97.05
2023-10-20T02:57:04.437Z,97.00
2023-10-20T02:58:03.431Z,96.70
2023-10-20T02:59:03.467Z,96.70
2023-10-20T03:00:03.404Z,96.70
2023-10-20T03:01:03.450Z,96.09
2023-10-20T03:02:03.464Z,97.11
2023-10-20T03:03:03.482Z,96.90
2023-10-20T03:04:03.492Z,97.11
2023-10-20T03:05:03.496Z,96.90
2023-10-20T03:06:03.369Z,97.00
2023-10-20T03:07:03.376Z,96.80
2023-10-20T03:08:03.404Z,96.90
2023-10-20T03:09:03.361Z,97.31
2023-10-20T03:10:03.332Z,97.20
2023-10-20T03:11:03.336Z,97.11
2023-10-20T03:12:03.324Z,97.66
2023-10-20T03:13:03.320Z,96.50
2023-10-20T03:14:03.341Z,96.80
2023-10-20T03:15:03.309Z,97.20
2023-10-20T03:16:03.310Z,96.54
2023-10-20T03:17:03.469Z,96.54
2023-10-20T03:18:03.268Z,96.50
2023-10-20T03:19:03.259Z,97.11
2023-10-20T03:20:03.265Z,97.20
2023-10-20T03:21:03.357Z,96.70
2023-10-20T03:22:03.262Z,97.20
2023-10-20T03:23:03.254Z,96.80
2023-10-20T03:24:03.229Z,97.00
2023-10-20T03:25:03.220Z,96.70
2023-10-20T03:26:03.288Z,97.31
2023-10-20T03:27:03.250Z,96.60
2023-10-20T03:28:03.228Z,96.90
2023-10-20T03:29:03.255Z,96.90
2023-10-20T03:30:03.188Z,96.39
2023-10-20T03:31:03.204Z,96.70
2023-10-20T03:32:03.237Z,96.60
2023-10-20T03:33:03.208Z,96.70
2023-10-20T03:34:03.144Z,96.80
2023-10-20T03:35:03.213Z,96.90
2023-10-20T03:36:03.166Z,97.11
2023-10-20T03:37:03.130Z,97.81
2023-10-20T03:38:03.143Z,97.25
2023-10-20T03:39:03.151Z,97.71
2023-10-20T03:40:03.121Z,97.56
2023-10-20T03:41:03.106Z,97.15
2023-10-20T03:42:03.100Z,97.45
2023-10-20T03:43:03.089Z,97.35
2023-10-20T03:44:03.096Z,97.45
2023-10-20T03:45:03.077Z,97.35
2023-10-20T03:46:03.087Z,97.51
2023-10-20T03:47:03.088Z,97.25
2023-10-20T03:48:03.138Z,97.35
2023-10-20T03:49:03.075Z,97.15
2023-10-20T03:50:03.032Z,97.25
2023-10-20T03:51:03.047Z,97.81
2023-10-20T03:52:03.038Z,98.47
2023-10-20T03:53:03.087Z,98.27
2023-10-20T03:54:03.010Z,98.37
2023-10-20T03:55:03.041Z,98.12
2023-10-20T03:56:03.078Z,98.47
2023-10-20T03:57:02.999Z,98.16
2023-10-20T03:58:02.977Z,98.47
2023-10-20T03:59:02.985Z,98.27
2023-10-20T04:00:02.965Z,98.27
2023-10-20T04:01:02.965Z,98.37
2023-10-20T04:02:03.121Z,98.68
2023-10-20T04:03:03.073Z,98.92
2023-10-20T04:04:02.999Z,99.13
2023-10-20T04:05:02.969Z,99.22
2023-10-20T04:06:02.944Z,99.38
2023-10-20T04:07:02.921Z,99.33
2023-10-20T04:08:02.950Z,99.38
2023-10-20T04:09:02.907Z,99.53
2023-10-20T04:10:02.907Z,99.53
2023-10-20T04:11:02.925Z,99.33
2023-10-20T04:12:02.890Z,99.49
2023-10-20T04:13:02.877Z,99.53
2023-10-20T04:14:02.888Z,99.33
2023-10-20T04:15:02.868Z,99.33
2023-10-20T04:16:02.882Z,99.13
2023-10-20T04:17:02.888Z,99.63
2023-10-20T04:18:02.903Z,98.68
2023-10-20T04:19:02.839Z,99.02
2023-10-20T04:20:02.848Z,99.63
2023-10-20T04:21:02.826Z,98.82
2023-10-20T04:22:02.810Z,99.02
2023-10-20T04:23:02.814Z,99.02
2023-10-20T04:24:02.786Z,99.13
2023-10-20T04:25:02.788Z,99.02
2023-10-20T04:26:02.804Z,99.22
2023-10-20T04:27:06.153Z,99.02
2023-10-20T04:28:02.763Z,99.43
2023-10-20T04:29:02.761Z,99.33
2023-10-20T04:30:02.751Z,99.22
2023-10-20T04:31:03.749Z,99.13
2023-10-20T04:32:02.759Z,99.22
2023-10-20T04:33:02.751Z,99.74
2023-10-20T04:34:02.710Z,99.63
2023-10-20T04:35:02.715Z,99.53
2023-10-20T04:36:02.742Z,99.53
2023-10-20T04:37:02.687Z,99.13
2023-10-20T04:38:02.693Z,99.33
2023-10-20T04:39:02.691Z,99.33
2023-10-20T04:40:02.713Z,99.33
2023-10-20T04:41:02.695Z,99.53
2023-10-20T04:42:02.677Z,99.33
2023-10-20T04:43:02.645Z,99.53
2023-10-20T04:44:02.646Z,99.99
2023-10-20T04:45:02.636Z,99.74
2023-10-20T04:46:02.717Z,99.63
2023-10-20T04:47:02.618Z,99.74
2023-10-20T04:48:02.697Z,99.43
2023-10-20T04:49:02.643Z,99.94
2023-10-20T04:50:02.598Z,99.33
2023-10-20T04:51:02.581Z,99.78
2023-10-20T04:52:02.603Z,99.43
2023-10-20T04:53:02.586Z,99.02
2023-10-20T04:54:02.554Z,99.53
2023-10-20T04:55:02.557Z,99.02
2023-10-20T04:56:02.549Z,99.43
2023-10-20T04:57:02.560Z,99.78
2023-10-20T04:58:02.540Z,99.48
2023-10-20T04:59:02.538Z,99.48
2023-10-20T05:00:02.516Z,99.38
2023-10-20T05:01:02.591Z,99.58
2023-10-20T05:02:02.536Z,99.99
2023-10-20T05:03:02.592Z,99.99
2023-10-20T05:04:02.547Z,99.99
2023-10-20T05:05:02.473Z,99.99
2023-10-20T05:06:02.486Z,99.99
2023-10-20T05:07:02.479Z,99.99
2023-10-20T05:08:02.478Z,99.99
2023-10-20T05:09:02.465Z,99.99
2023-10-20T05:10:02.459Z,99.99
2023-10-20T05:11:02.454Z,99.99
2023-10-20T05:12:02.439Z,99.99
2023-10-20T05:13:02.430Z,99.99
2023-10-20T05:14:02.419Z,99.99
2023-10-20T05:15:02.442Z,99.99
2023-10-20T05:16:02.488Z,99.99
2023-10-20T05:17:02.414Z,99.99
2023-10-20T05:18:02.457Z,99.99
2023-10-20T05:19:02.488Z,99.99
2023-10-20T05:20:02.373Z,99.99
2023-10-20T05:21:02.373Z,99.99
2023-10-20T05:22:02.376Z,99.99
2023-10-20T05:23:02.358Z,99.99
2023-10-20T05:24:02.656Z,99.99
2023-10-20T05:25:02.347Z,99.99
2023-10-20T05:26:02.333Z,99.99
2023-10-20T05:27:02.326Z,99.99
2023-10-20T05:28:02.323Z,99.99
2023-10-20T05:29:02.378Z,99.99
2023-10-20T05:30:02.340Z,99.99
2023-10-20T05:31:02.296Z,99.99
2023-10-20T05:32:02.294Z,98.77
2023-10-20T05:33:02.405Z,98.32
2023-10-20T05:34:02.274Z,96.64
2023-10-20T05:35:02.281Z,96.84
2023-10-20T05:36:02.277Z,97.09
2023-10-20T05:37:02.256Z,96.84
2023-10-20T05:38:02.257Z,96.89
2023-10-20T05:39:02.255Z,97.09
2023-10-20T05:40:02.252Z,96.73
2023-10-20T05:41:02.248Z,97.34
2023-10-20T05:42:02.233Z,97.50
2023-10-20T05:43:02.221Z,97.55
2023-10-20T05:44:02.302Z,98.36
2023-10-20T05:45:03.073Z,98.46
2023-10-20T05:46:03.294Z,98.56
2023-10-20T05:47:02.224Z,98.97
2023-10-20T05:48:02.414Z,98.81
2023-10-20T05:49:02.220Z,99.02
2023-10-20T05:50:02.208Z,99.22
2023-10-20T05:51:02.219Z,99.02
2023-10-20T05:52:02.199Z,99.11
2023-10-20T05:53:02.171Z,98.97
2023-10-20T05:54:02.153Z,99.07
2023-10-20T05:55:02.152Z,99.42
2023-10-20T05:56:02.169Z,99.11
2023-10-20T05:57:02.156Z,98.86
2023-10-20T05:58:02.154Z,98.50
2023-10-20T05:59:02.122Z,98.61
2023-10-20T06:00:02.123Z,98.91
2023-10-20T06:01:03.453Z,98.91
2023-10-20T06:02:03.116Z,98.71
2023-10-20T06:03:04.443Z,98.71
2023-10-20T06:04:02.216Z,98.50
2023-10-20T06:05:02.088Z,98.61
2023-10-20T06:06:02.172Z,98.50
2023-10-20T06:07:02.079Z,99.11
2023-10-20T06:08:02.062Z,98.91
2023-10-20T06:09:02.062Z,98.81
2023-10-20T06:10:02.055Z,98.91
2023-10-20T06:11:02.066Z,98.96
2023-10-20T06:12:02.040Z,98.91
2023-10-20T06:13:02.033Z,98.91
2023-10-20T06:14:02.028Z,98.91
2023-10-20T06:15:02.038Z,98.81
2023-10-20T06:16:02.060Z,98.55
2023-10-20T06:17:01.996Z,98.91
2023-10-20T06:18:02.129Z,99.11
2023-10-20T06:19:02.021Z,98.91
2023-10-20T06:20:01.981Z,99.02
2023-10-20T06:21:01.973Z,98.91
2023-10-20T06:22:01.972Z,98.81
2023-10-20T06:23:01.958Z,99.02
2023-10-20T06:24:02.129Z,98.71
2023-10-20T06:25:01.946Z,98.71
2023-10-20T06:26:01.943Z,98.56
2023-10-20T06:27:01.932Z,98.81
2023-10-20T06:28:01.935Z,98.56
2023-10-20T06:29:01.954Z,98.56
2023-10-20T06:30:01.942Z,98.46
2023-10-20T06:31:02.299Z,98.26
2023-10-20T06:32:01.938Z,98.56
2023-10-20T06:33:02.025Z,98.46
2023-10-20T06:34:02.158Z,98.46
2023-10-20T06:35:01.886Z,98.26
2023-10-20T06:36:01.877Z,98.46
2023-10-20T06:37:01.859Z,98.46
2023-10-20T06:38:01.845Z,98.36
2023-10-20T06:39:01.846Z,98.36
2023-10-20T06:40:01.837Z,98.41
2023-10-20T06:41:01.820Z,98.26
2023-10-20T06:42:01.811Z,98.26
2023-10-20T06:43:01.809Z,98.81
2023-10-20T06:44:01.821Z,98.50
2023-10-20T06:45:01.802Z,98.50
2023-10-20T06:46:01.899Z,98.41
2023-10-20T06:47:01.778Z,98.41
2023-10-20T06:48:01.886Z,98.35
2023-10-20T06:49:01.780Z,97.64
2023-10-20T06:50:01.765Z,97.64
2023-10-20T06:51:01.748Z,98.45
2023-10-20T06:52:01.755Z,98.55
2023-10-20T06:53:01.748Z,98.39
2023-10-20T06:54:01.774Z,97.99
2023-10-20T06:57:02.762Z,98.70
2023-10-20T06:58:01.718Z,98.44
2023-10-20T06:59:01.712Z,98.80
2023-10-20T07:00:01.677Z,98.50
2023-10-20T07:01:01.702Z,98.60
2023-10-20T07:02:01.878Z,98.70
2023-10-20T07:03:01.739Z,98.60
2023-10-20T07:04:01.683Z,98.60
2023-10-20T07:05:01.649Z,98.70
2023-10-20T07:06:01.655Z,98.50
2023-10-20T07:07:01.645Z,98.60
2023-10-20T07:08:01.630Z,98.60
2023-10-20T07:09:01.629Z,98.60
2023-10-20T07:10:01.653Z,98.39
2023-10-20T07:11:01.612Z,98.39
2023-10-20T07:12:01.598Z,98.39
2023-10-20T07:13:01.593Z,98.60
2023-10-20T07:14:01.589Z,98.70
2023-10-20T07:15:01.600Z,98.70
2023-10-20T07:16:01.772Z,98.70
2023-10-20T07:17:01.574Z,98.60
2023-10-20T07:18:01.645Z,98.39
2023-10-20T07:19:01.555Z,98.39
2023-10-20T07:20:01.551Z,98.44
2023-10-20T07:21:01.611Z,98.70
2023-10-20T07:22:01.555Z,98.39
2023-10-20T07:23:01.520Z,98.60
2023-10-20T07:24:01.525Z,98.60
2023-10-20T07:25:01.510Z,98.75
2023-10-20T07:26:01.516Z,98.54
2023-10-20T07:27:01.505Z,98.80
2023-10-20T07:28:01.546Z,98.30
2023-10-20T07:29:01.496Z,98.39
2023-10-20T07:30:01.510Z,98.54
2023-10-20T07:31:01.486Z,98.70
2023-10-20T07:32:01.479Z,99.05
2023-10-20T07:33:01.620Z,98.95
2023-10-20T07:34:01.455Z,98.85
2023-10-20T07:35:01.455Z,98.85
2023-10-20T07:36:01.441Z,98.75
2023-10-20T07:37:01.438Z,99.16
2023-10-20T07:38:01.436Z,99.36
2023-10-20T07:39:01.433Z,99.26
2023-10-20T07:40:01.437Z,99.26
2023-10-20T07:41:01.423Z,99.36
2023-10-20T07:42:01.418Z,99.26
2023-10-20T07:43:01.395Z,98.95
2023-10-20T07:44:01.382Z,98.65
2023-10-20T07:45:01.412Z,98.91
2023-10-20T07:46:01.423Z,98.70
2023-10-20T07:47:01.374Z,99.11
2023-10-20T07:48:02.088Z,98.85
2023-10-20T07:49:01.345Z,98.70
2023-10-20T07:50:01.375Z,98.60
2023-10-20T07:51:01.377Z,98.34
2023-10-20T07:52:02.644Z,98.75
2023-10-20T07:53:01.323Z,98.95
2023-10-20T07:54:01.325Z,98.75
2023-10-20T07:55:01.312Z,99.16
2023-10-20T07:56:01.315Z,99.81
2023-10-20T07:57:01.299Z,99.41
2023-10-20T07:58:01.321Z,99.99
2023-10-20T07:59:01.301Z,99.66
2023-10-20T08:00:01.299Z,99.61
2023-10-20T08:01:01.325Z,99.36
2023-10-20T08:02:01.371Z,99.46
2023-10-20T08:03:01.501Z,99.26
2023-10-20T08:04:01.387Z,99.36
2023-10-20T08:05:01.479Z,99.26
2023-10-20T08:06:01.541Z,99.26
2023-10-20T08:07:01.806Z,98.75
2023-10-20T08:08:01.234Z,98.54
2023-10-20T08:09:01.220Z,98.54
2023-10-20T08:10:01.234Z,98.75
2023-10-20T08:11:01.209Z,98.65
2023-10-20T08:12:01.205Z,98.69
2023-10-20T08:13:01.190Z,98.65
2023-10-20T08:14:01.201Z,98.75
2023-10-20T08:15:01.209Z,98.79
2023-10-20T08:16:01.260Z,98.79
2023-10-20T08:17:01.177Z,98.79
2023-10-20T08:18:01.301Z,99.00
2023-10-20T08:19:01.164Z,98.90
2023-10-20T08:20:01.439Z,99.00
2023-10-20T08:21:01.152Z,98.39
2023-10-20T08:22:01.154Z,98.28
2023-10-20T08:23:01.134Z,98.39
2023-10-20T08:24:01.157Z,98.90
2023-10-20T08:25:01.140Z,98.59
2023-10-20T08:26:01.118Z,98.90
2023-10-20T08:27:01.108Z,99.00
2023-10-20T08:28:01.109Z,98.74
2023-10-20T08:29:01.094Z,98.90
2023-10-20T08:30:01.089Z,98.84
2023-10-20T08:31:01.102Z,98.84
2023-10-20T08:32:01.062Z,98.94
2023-10-20T08:33:02.143Z,98.90
2023-10-20T08:34:01.064Z,99.04
2023-10-20T08:35:01.060Z,98.90
2023-10-20T08:36:01.210Z,99.00
2023-10-20T08:37:01.033Z,99.10
2023-10-20T08:38:01.061Z,99.10
2023-10-20T08:39:01.020Z,98.64
2023-10-20T08:40:01.032Z,98.69
2023-10-20T08:41:12.376Z,99.10
2023-10-20T08:42:03.011Z,98.28
2023-10-20T08:43:00.999Z,98.18
2023-10-20T08:44:01.027Z,98.79
2023-10-20T08:45:00.992Z,98.90
2023-10-20T08:46:01.031Z,98.65
2023-10-20T08:47:00.976Z,98.90
2023-10-20T08:48:01.088Z,99.00
2023-10-20T08:49:00.952Z,98.69
2023-10-20T08:50:00.954Z,98.69
2023-10-20T08:51:00.996Z,99.04
2023-10-20T08:52:00.927Z,98.94
2023-10-20T08:53:00.934Z,99.20
2023-10-20T08:54:00.989Z,99.00
2023-10-20T08:55:00.958Z,98.59
2023-10-20T08:56:00.916Z,98.28
2023-10-20T08:57:00.909Z,98.28
2023-10-20T08:58:00.926Z,98.69
2023-10-20T08:59:00.925Z,98.79
2023-10-20T09:00:00.893Z,98.79
2023-10-20T09:01:00.934Z,98.65
2023-10-20T09:02:00.921Z,98.08
2023-10-20T09:03:00.994Z,97.63
2023-10-20T09:04:00.974Z,96.81
2023-10-20T09:05:00.852Z,97.37
2023-10-20T09:06:00.879Z,97.98
2023-10-20T09:07:00.836Z,97.73
2023-10-20T09:08:00.840Z,97.93
2023-10-20T09:09:00.988Z,97.78
2023-10-20T09:10:00.841Z,96.81
2023-10-20T09:11:00.817Z,96.86
2023-10-20T09:12:00.824Z,96.66
2023-10-20T09:13:00.809Z,97.37
2023-10-20T09:14:00.795Z,96.96
2023-10-20T09:15:00.806Z,96.96
2023-10-20T09:16:00.795Z,97.37
2023-10-20T09:17:00.806Z,97.27
2023-10-20T09:18:02.578Z,97.02
2023-10-20T09:19:00.768Z,97.57
2023-10-20T09:20:00.754Z,96.86
2023-10-20T09:21:00.797Z,97.02
2023-10-20T09:22:00.759Z,97.83
2023-10-20T09:23:00.729Z,96.92
2023-10-20T09:24:02.634Z,97.12
2023-10-20T09:25:03.488Z,96.41
2023-10-20T09:26:04.267Z,96.92
2023-10-20T09:27:00.712Z,97.02
2023-10-20T09:28:00.750Z,97.47
2023-10-20T09:29:00.766Z,96.96
2023-10-20T09:30:00.697Z,97.42
2023-10-20T09:31:00.737Z,96.86
2023-10-20T09:32:00.690Z,97.73
2023-10-20T09:33:00.728Z,97.47
2023-10-20T09:34:00.687Z,97.32
2023-10-20T09:35:00.659Z,97.37
2023-10-20T09:36:00.676Z,97.27
2023-10-20T09:37:00.656Z,97.32
2023-10-20T09:38:00.640Z,97.32
2023-10-20T09:39:00.641Z,97.07
2023-10-20T09:40:00.634Z,97.22
2023-10-20T09:41:00.628Z,96.97
2023-10-20T09:42:00.611Z,97.17
2023-10-20T09:43:07.757Z,96.20
2023-10-20T09:44:02.645Z,95.59
2023-10-20T09:45:00.656Z,96.71
2023-10-20T09:46:00.588Z,97.02
2023-10-20T09:47:00.628Z,97.22
2023-10-20T09:48:00.614Z,97.32
2023-10-20T09:49:00.562Z,96.92
2023-10-20T09:50:00.587Z,96.71
2023-10-20T09:52:57.788Z,96.10
2023-10-20T09:53:58.892Z,95.59
2023-10-20T09:54:58.889Z,96.00
2023-10-20T09:55:58.945Z,96.61
2023-10-20T09:57:00.626Z,96.20
2023-10-20T09:58:01.981Z,96.06
2023-10-20T09:58:58.861Z,96.67
2023-10-20T09:59:58.880Z,96.26
2023-10-20T10:00:58.887Z,95.85
2023-10-20T10:01:58.914Z,95.54
2023-10-20T10:02:58.946Z,96.77
2023-10-20T10:03:58.863Z,96.87
2023-10-20T10:04:58.812Z,96.56
2023-10-20T10:05:58.861Z,95.85
2023-10-20T10:06:58.808Z,95.20
2023-10-20T10:07:58.795Z,94.84
2023-10-20T10:08:58.791Z,94.84
2023-10-20T10:09:58.771Z,95.40
2023-10-20T10:10:58.767Z,95.54
2023-10-20T10:11:58.781Z,95.09
2023-10-20T10:12:58.760Z,94.28
2023-10-20T10:13:58.747Z,95.20
2023-10-20T10:14:58.789Z,94.89
2023-10-20T10:15:58.730Z,95.30
2023-10-20T10:17:00.350Z,95.97
2023-10-20T10:18:00.887Z,95.46
2023-10-20T10:19:01.715Z,95.05
2023-10-20T10:19:58.697Z,94.80
2023-10-20T10:20:58.702Z,94.90
2023-10-20T10:21:58.704Z,93.93
2023-10-20T10:22:58.673Z,93.89
2023-10-20T10:23:58.682Z,94.34
2023-10-20T10:24:58.678Z,94.95
2023-10-20T10:25:58.692Z,95.46
2023-10-20T10:26:58.828Z,95.46
2023-10-20T10:27:58.662Z,95.46
2023-10-20T10:28:58.645Z,94.44
2023-10-20T10:29:58.703Z,95.05
2023-10-20T10:30:58.665Z,95.05
2023-10-20T10:32:09.213Z,94.95
2023-10-20T10:33:00.703Z,94.04
2023-10-20T10:33:58.747Z,94.04
2023-10-20T10:34:58.691Z,94.40
2023-10-20T10:35:58.647Z,95.21
2023-10-20T10:36:58.594Z,94.70
2023-10-20T10:37:58.593Z,95.01
2023-10-20T10:38:58.628Z,95.26
2023-10-20T10:39:58.614Z,93.84
2023-10-20T10:40:58.569Z,94.50
2023-10-20T10:41:58.559Z,94.86
2023-10-20T10:42:58.577Z,94.09
2023-10-20T10:43:58.550Z,94.50
2023-10-20T10:44:58.625Z,94.20
2023-10-20T10:45:58.530Z,94.20
2023-10-20T10:48:54.121Z,95.37
2023-10-20T10:49:46.915Z,93.54
2023-10-20T10:50:44.868Z,93.24
2023-10-20T10:51:44.809Z,92.72
2023-10-20T10:52:44.771Z,92.77
2023-10-20T10:53:44.795Z,92.57
2023-10-20T10:54:44.757Z,92.47
2023-10-20T10:55:44.868Z,93.43
2023-10-20T10:56:45.036Z,93.73
2023-10-20T10:57:44.740Z,93.52
2023-10-20T10:58:44.719Z,94.24
2023-10-20T10:59:44.870Z,94.04
2023-10-20T11:00:44.762Z,94.95
2023-10-20T11:01:44.694Z,93.73
2023-10-20T11:02:44.882Z,93.52
2023-10-20T11:03:44.740Z,93.93
2023-10-20T11:04:44.747Z,94.13
2023-10-20T11:05:44.710Z,93.63
2023-10-20T11:06:44.700Z,93.83
2023-10-20T11:07:44.666Z,93.43
2023-10-20T11:08:44.740Z,93.73
2023-10-20T11:09:44.654Z,93.83
2023-10-20T11:10:44.787Z,93.63
2023-10-20T11:11:44.670Z,93.83
2023-10-20T11:12:44.629Z,93.32
2023-10-20T11:13:44.616Z,92.35
2023-10-20T11:14:44.666Z,93.47
2023-10-20T11:15:44.620Z,94.23
2023-10-20T11:16:44.624Z,95.54
2023-10-20T11:17:44.781Z,95.69
2023-10-20T11:18:44.665Z,96.06
2023-10-20T11:19:44.882Z,96.10
2023-10-20T11:20:44.645Z,96.92
2023-10-20T11:21:44.571Z,97.22
2023-10-20T11:22:45.581Z,96.67
2023-10-20T11:23:44.588Z,97.42
2023-10-20T11:24:44.547Z,97.02
2023-10-20T11:25:44.666Z,96.20
2023-10-20T11:26:44.542Z,95.95
2023-10-20T11:27:44.599Z,97.38
2023-10-20T11:28:44.517Z,97.13
2023-10-20T11:29:57.667Z,97.13
2023-10-20T11:30:46.823Z,96.07
2023-10-20T11:31:44.504Z,95.66
2023-10-20T11:32:44.581Z,94.85
2023-10-20T11:33:44.527Z,93.73
2023-10-20T11:34:44.956Z,94.24
2023-10-20T11:35:45.717Z,93.99
2023-10-20T11:36:44.465Z,93.68
2023-10-20T11:37:44.463Z,93.28
2023-10-20T11:38:45.477Z,93.28
2023-10-20T11:39:44.436Z,93.28
2023-10-20T11:40:44.444Z,92.26
2023-10-20T11:41:44.436Z,92.67
2023-10-20T11:42:44.457Z,92.57
2023-10-20T11:43:44.411Z,93.44
2023-10-20T11:44:44.453Z,92.87
2023-10-20T11:45:44.405Z,91.91
2023-10-20T11:46:44.420Z,91.86
2023-10-20T11:47:44.478Z,91.39
2023-10-20T11:48:44.420Z,91.29
2023-10-20T11:49:44.371Z,92.14
2023-10-20T11:50:44.454Z,91.33
2023-10-20T11:51:44.367Z,91.17
2023-10-20T11:52:44.372Z,93.01
2023-10-20T11:53:44.417Z,94.47
2023-10-20T11:54:44.349Z,93.82
2023-10-20T11:55:44.340Z,94.12
2023-10-20T11:56:44.396Z,92.80
2023-10-20T11:57:44.338Z,92.64
2023-10-20T11:58:44.323Z,93.15
2023-10-20T11:59:44.397Z,93.66
2023-10-20T12:00:44.311Z,94.52
2023-10-20T12:01:44.362Z,94.11
2023-10-20T12:02:44.346Z,94.17
2023-10-20T12:03:44.359Z,94.27
2023-10-20T12:04:44.316Z,93.60
2023-10-20T12:05:44.313Z,94.27
2023-10-20T12:06:44.283Z,94.37
2023-10-20T12:07:44.263Z,94.17
2023-10-20T12:08:44.314Z,94.12
2023-10-20T12:09:44.250Z,92.94
2023-10-20T12:10:44.241Z,92.84
2023-10-20T12:11:44.260Z,93.25
2023-10-20T12:12:44.232Z,93.76
2023-10-20T12:13:44.217Z,93.25
2023-10-20T12:14:44.265Z,93.51
2023-10-20T12:15:44.210Z,93.66
2023-10-20T12:16:44.395Z,93.05
2023-10-20T12:17:44.487Z,93.25
2023-10-20T12:18:44.331Z,93.45
2023-10-20T12:19:44.187Z,94.01
2023-10-20T12:20:44.200Z,94.62
2023-10-20T12:21:44.317Z,94.47
2023-10-20T12:22:44.176Z,94.11
2023-10-20T12:23:44.186Z,94.82
2023-10-20T12:24:44.153Z,95.33
2023-10-20T12:25:44.139Z,95.03
2023-10-20T12:26:44.154Z,95.23
2023-10-20T12:27:44.157Z,94.62
2023-10-20T12:28:44.123Z,94.62
2023-10-20T12:29:44.164Z,95.53
2023-10-20T12:30:44.147Z,95.78
2023-10-20T12:31:44.120Z,95.37
2023-10-20T12:32:44.156Z,94.20
2023-10-20T12:33:44.113Z,94.09
2023-10-20T12:34:44.099Z,94.40
2023-10-20T12:35:44.104Z,94.71
2023-10-20T12:36:44.076Z,94.50
2023-10-20T12:37:44.088Z,95.36
2023-10-20T12:38:44.099Z,94.75
2023-10-20T12:39:44.081Z,95.47
2023-10-20T12:40:44.055Z,95.10
2023-10-20T12:41:44.085Z,95.36
2023-10-20T12:42:44.078Z,95.10
2023-10-20T12:43:44.027Z,95.36
2023-10-20T12:44:45.115Z,95.47
2023-10-20T12:45:44.037Z,95.87
2023-10-20T12:46:44.058Z,95.67
2023-10-20T12:47:44.105Z,95.57
2023-10-20T12:48:44.173Z,95.57
2023-10-20T12:49:43.993Z,94.95
2023-10-20T12:50:44.012Z,95.67
2023-10-20T12:51:43.988Z,96.08
2023-10-20T12:52:43.972Z,95.97
2023-10-20T12:53:44.000Z,95.72
2023-10-20T12:54:43.960Z,96.43
2023-10-20T12:55:43.959Z,96.33
2023-10-20T12:56:44.025Z,97.34
2023-10-20T12:57:43.951Z,97.75